메인 페이지
METAR-TAF:

METAR-TAF

공항 :

애니스턴, 앨라배마, 미국

위도: 33-35-26N, 경도: 085-50-51W, 고도: 186m

현재 날씨관측

예보는 28분 전, 06:53시(UTC)에 발표되었습니다.
서북서3kt
온도 21°C
습도 88%
기압 1012 hPa
시정: 16.1km
고도 1800ft 상공 구름 조금
고도 4300ft 상공 구름 많음
고도 9500ft 상공 구름 많음

METAR: KANB 220653Z AUTO 29003KT 10SM FEW018 BKN043 BKN095 21/19 A2987 RMK AO2 RAB13E30 SLP107 P0000 T02060189

시각: 02:21 (07:21 UTC)

예보

예보는 2 시간 1분 전, 05:20시(UTC)에 발표되었습니다.
예보 대상 시간: 22일 06시부터 23일 06시까지 (UTC)
여러 방향의 바람 3kt
시정: 10km
고도 3500ft 상공 구름 보통
고도 6000ft 상공 흐림
시계 내 소나기
일시적
22일 06시부터 22일 08시까지 (UTC)
시정: 6.4km
고도 1500ft 상공 흐림
약한소나기, 박무
22일 0800시부터 (UTC)
4kt
시정: 10km
고도 1500ft 상공 흐림
22일 1000시부터 (UTC)
4kt
시정: 10km
고도 5000ft 상공 흐림
22일 1600시부터 (UTC)
11kt, 순간 최대 풍속 19kt
시정: 10km
맑음
23일 0000시부터 (UTC)
서북서3kt
시정: 10km
맑음

TAF: KANB 220520Z 2206/2306 VRB03KT P6SM VCSH SCT035 OVC060 TEMPO 2206/2208 4SM -SHRA BR OVC015 FM220800 28004KT P6SM OVC015 FM221000 28004KT P6SM OVC050 FM221600 28011G19KT P6SM SKC FM230000 29003KT P6SM SKC

4,000개 이상의 공항 관측 자료 및 예보 (METAR 및 TAF 보고).

지도상에서 검색 가능한 기상관측소가 노란 점과 빨간 점으로 표시되어 있습니다.

기상관측소 명을 보려면 표시 위로 마우스를 이동하세요.

날씨 관측과 예보를 보려면 클릭하세요.

지도 변경 : 확대하려면 엑스 표시가 있는 녹색 버튼, 축소하려면 빼기 표시가 있는 녹색 버튼, 다음 페이지의 지도를 보려면 녹색 화살표를 클릭하세요.


METAR-TAF: